sensor_id;sensor_type;location;lat;lon;timestamp;P1;durP1;ratioP1;P2;durP2;ratioP2
37205;SDS011;23099;42.636;23.198;2023-04-30T00:00:05;15.48;;;6.55;;
37205;SDS011;23099;42.636;23.198;2023-04-30T00:02:34;14.82;;;6.15;;
37205;SDS011;23099;42.636;23.198;2023-04-30T00:05:00;12.75;;;6.07;;
37205;SDS011;23099;42.636;23.198;2023-04-30T00:07:27;12.73;;;5.50;;
37205;SDS011;23099;42.636;23.198;2023-04-30T00:09:55;13.38;;;5.82;;
37205;SDS011;23099;42.636;23.198;2023-04-30T00:12:21;13.18;;;5.78;;
37205;SDS011;23099;42.636;23.198;2023-04-30T00:14:48;12.73;;;6.05;;
37205;SDS011;23099;42.636;23.198;2023-04-30T00:17:15;15.77;;;6.72;;
37205;SDS011;23099;42.636;23.198;2023-04-30T00:19:42;12.70;;;6.45;;
37205;SDS011;23099;42.636;23.198;2023-04-30T00:22:08;15.07;;;6.60;;
37205;SDS011;23099;42.636;23.198;2023-04-30T00:24:35;17.77;;;7.18;;
37205;SDS011;23099;42.636;23.198;2023-04-30T00:27:03;14.40;;;6.80;;
37205;SDS011;23099;42.636;23.198;2023-04-30T00:29:30;13.52;;;6.85;;
37205;SDS011;23099;42.636;23.198;2023-04-30T00:31:56;15.57;;;7.53;;
37205;SDS011;23099;42.636;23.198;2023-04-30T00:34:23;17.17;;;7.45;;
37205;SDS011;23099;42.636;23.198;2023-04-30T00:36:50;19.35;;;9.45;;
37205;SDS011;23099;42.636;23.198;2023-04-30T00:39:17;33.58;;;16.73;;
37205;SDS011;23099;42.636;23.198;2023-04-30T00:41:43;21.23;;;9.73;;
37205;SDS011;23099;42.636;23.198;2023-04-30T00:44:12;13.93;;;6.75;;
37205;SDS011;23099;42.636;23.198;2023-04-30T00:46:38;11.27;;;5.43;;
37205;SDS011;23099;42.636;23.198;2023-04-30T00:49:05;13.75;;;5.20;;
37205;SDS011;23099;42.636;23.198;2023-04-30T00:51:33;13.52;;;6.40;;
37205;SDS011;23099;42.636;23.198;2023-04-30T00:56:28;15.63;;;6.18;;
37205;SDS011;23099;42.636;23.198;2023-04-30T00:58:55;13.85;;;6.13;;
37205;SDS011;23099;42.636;23.198;2023-04-30T01:01:24;15.93;;;5.72;;
37205;SDS011;23099;42.636;23.198;2023-04-30T01:03:52;13.68;;;5.60;;
37205;SDS011;23099;42.636;23.198;2023-04-30T01:06:19;16.02;;;6.28;;
37205;SDS011;23099;42.636;23.198;2023-04-30T01:08:45;13.98;;;6.40;;
37205;SDS011;23099;42.636;23.198;2023-04-30T01:11:16;16.17;;;6.57;;
37205;SDS011;23099;42.636;23.198;2023-04-30T01:16:21;17.63;;;7.97;;
37205;SDS011;23099;42.636;23.198;2023-04-30T01:18:53;14.18;;;6.82;;
37205;SDS011;23099;42.636;23.198;2023-04-30T01:21:24;14.88;;;7.57;;
37205;SDS011;23099;42.636;23.198;2023-04-30T01:24:02;16.05;;;7.07;;
37205;SDS011;23099;42.636;23.198;2023-04-30T01:26:45;16.55;;;6.93;;
37205;SDS011;23099;42.636;23.198;2023-04-30T01:29:19;14.77;;;6.45;;
37205;SDS011;23099;42.636;23.198;2023-04-30T01:31:49;16.15;;;6.55;;
37205;SDS011;23099;42.636;23.198;2023-04-30T01:34:16;15.98;;;6.70;;
37205;SDS011;23099;42.636;23.198;2023-04-30T01:36:49;14.38;;;7.03;;
37205;SDS011;23099;42.636;23.198;2023-04-30T01:39:33;14.85;;;7.82;;
37205;SDS011;23099;42.636;23.198;2023-04-30T01:42:15;16.75;;;7.40;;
37205;SDS011;23099;42.636;23.198;2023-04-30T01:45:06;14.23;;;6.70;;
37205;SDS011;23099;42.636;23.198;2023-04-30T01:47:45;14.73;;;6.15;;
37205;SDS011;23099;42.636;23.198;2023-04-30T01:50:19;12.40;;;5.45;;
37205;SDS011;23099;42.636;23.198;2023-04-30T01:52:55;11.02;;;5.03;;
37205;SDS011;23099;42.636;23.198;2023-04-30T01:55:26;12.82;;;6.60;;
37205;SDS011;23099;42.636;23.198;2023-04-30T01:57:55;10.32;;;4.07;;
37205;SDS011;23099;42.636;23.198;2023-04-30T02:00:25;13.55;;;4.47;;
37205;SDS011;23099;42.636;23.198;2023-04-30T02:02:52;10.55;;;4.28;;
37205;SDS011;23099;42.636;23.198;2023-04-30T02:05:19;10.88;;;5.25;;
37205;SDS011;23099;42.636;23.198;2023-04-30T02:07:47;12.27;;;5.50;;
37205;SDS011;23099;42.636;23.198;2023-04-30T02:10:15;11.50;;;5.15;;
37205;SDS011;23099;42.636;23.198;2023-04-30T02:12:43;11.90;;;6.05;;
37205;SDS011;23099;42.636;23.198;2023-04-30T02:15:10;14.48;;;5.30;;
37205;SDS011;23099;42.636;23.198;2023-04-30T02:17:38;13.70;;;5.45;;
37205;SDS011;23099;42.636;23.198;2023-04-30T02:20:05;12.13;;;5.45;;
37205;SDS011;23099;42.636;23.198;2023-04-30T02:22:33;15.65;;;7.07;;
37205;SDS011;23099;42.636;23.198;2023-04-30T02:25:00;13.18;;;5.82;;
37205;SDS011;23099;42.636;23.198;2023-04-30T02:27:29;13.95;;;6.03;;
37205;SDS011;23099;42.636;23.198;2023-04-30T02:29:56;12.23;;;4.45;;
37205;SDS011;23099;42.636;23.198;2023-04-30T02:32:23;9.30;;;4.10;;
37205;SDS011;23099;42.636;23.198;2023-04-30T02:34:52;9.57;;;4.47;;
37205;SDS011;23099;42.636;23.198;2023-04-30T02:37:18;9.20;;;4.90;;
37205;SDS011;23099;42.636;23.198;2023-04-30T02:39:45;11.40;;;4.57;;
37205;SDS011;23099;42.636;23.198;2023-04-30T02:42:12;11.60;;;4.32;;
37205;SDS011;23099;42.636;23.198;2023-04-30T02:44:38;12.43;;;5.85;;
37205;SDS011;23099;42.636;23.198;2023-04-30T02:47:05;15.05;;;6.65;;
37205;SDS011;23099;42.636;23.198;2023-04-30T02:49:32;16.40;;;7.00;;
37205;SDS011;23099;42.636;23.198;2023-04-30T02:52:00;15.73;;;5.97;;
37205;SDS011;23099;42.636;23.198;2023-04-30T02:54:27;15.35;;;5.47;;
37205;SDS011;23099;42.636;23.198;2023-04-30T02:56:53;10.23;;;4.45;;
37205;SDS011;23099;42.636;23.198;2023-04-30T02:59:21;15.27;;;6.75;;
37205;SDS011;23099;42.636;23.198;2023-04-30T03:01:48;22.42;;;7.00;;
37205;SDS011;23099;42.636;23.198;2023-04-30T03:04:14;15.95;;;6.18;;
37205;SDS011;23099;42.636;23.198;2023-04-30T03:06:41;13.43;;;6.70;;
37205;SDS011;23099;42.636;23.198;2023-04-30T03:09:09;18.08;;;6.25;;
37205;SDS011;23099;42.636;23.198;2023-04-30T03:11:36;16.30;;;5.57;;
37205;SDS011;23099;42.636;23.198;2023-04-30T03:14:02;12.00;;;4.85;;
37205;SDS011;23099;42.636;23.198;2023-04-30T03:16:29;15.60;;;4.90;;
37205;SDS011;23099;42.636;23.198;2023-04-30T03:18:56;12.75;;;4.43;;
37205;SDS011;23099;42.636;23.198;2023-04-30T03:21:23;11.57;;;5.22;;
37205;SDS011;23099;42.636;23.198;2023-04-30T03:23:50;13.13;;;5.65;;
37205;SDS011;23099;42.636;23.198;2023-04-30T03:26:18;13.05;;;5.45;;
37205;SDS011;23099;42.636;23.198;2023-04-30T03:28:46;10.93;;;5.63;;
37205;SDS011;23099;42.636;23.198;2023-04-30T03:31:13;14.20;;;5.40;;
37205;SDS011;23099;42.636;23.198;2023-04-30T03:33:40;11.80;;;6.15;;
37205;SDS011;23099;42.636;23.198;2023-04-30T03:36:06;12.98;;;5.78;;
37205;SDS011;23099;42.636;23.198;2023-04-30T03:38:33;12.77;;;6.47;;
37205;SDS011;23099;42.636;23.198;2023-04-30T03:41:00;13.65;;;6.50;;
37205;SDS011;23099;42.636;23.198;2023-04-30T03:43:28;15.05;;;6.70;;
37205;SDS011;23099;42.636;23.198;2023-04-30T03:45:54;14.13;;;5.75;;
37205;SDS011;23099;42.636;23.198;2023-04-30T03:48:21;11.75;;;5.10;;
37205;SDS011;23099;42.636;23.198;2023-04-30T03:50:48;15.10;;;5.47;;
37205;SDS011;23099;42.636;23.198;2023-04-30T03:53:14;9.90;;;4.10;;
37205;SDS011;23099;42.636;23.198;2023-04-30T03:55:41;10.90;;;4.03;;
37205;SDS011;23099;42.636;23.198;2023-04-30T03:58:08;15.27;;;6.15;;
37205;SDS011;23099;42.636;23.198;2023-04-30T04:00:36;15.80;;;6.03;;
37205;SDS011;23099;42.636;23.198;2023-04-30T04:03:02;18.13;;;7.50;;
37205;SDS011;23099;42.636;23.198;2023-04-30T04:05:29;16.90;;;7.80;;
37205;SDS011;23099;42.636;23.198;2023-04-30T04:07:56;22.73;;;9.50;;
37205;SDS011;23099;42.636;23.198;2023-04-30T04:10:22;20.98;;;10.77;;
37205;SDS011;23099;42.636;23.198;2023-04-30T04:12:49;19.70;;;9.10;;
37205;SDS011;23099;42.636;23.198;2023-04-30T04:15:16;14.23;;;6.75;;
37205;SDS011;23099;42.636;23.198;2023-04-30T04:17:44;12.38;;;5.22;;
37205;SDS011;23099;42.636;23.198;2023-04-30T04:20:11;12.38;;;5.80;;
37205;SDS011;23099;42.636;23.198;2023-04-30T04:22:38;20.97;;;10.43;;
37205;SDS011;23099;42.636;23.198;2023-04-30T04:25:05;19.65;;;9.77;;
37205;SDS011;23099;42.636;23.198;2023-04-30T04:27:32;21.87;;;9.43;;
37205;SDS011;23099;42.636;23.198;2023-04-30T04:30:00;21.30;;;10.25;;
37205;SDS011;23099;42.636;23.198;2023-04-30T04:32:27;22.60;;;9.77;;
37205;SDS011;23099;42.636;23.198;2023-04-30T04:34:56;19.05;;;9.60;;
37205;SDS011;23099;42.636;23.198;2023-04-30T04:37:22;19.63;;;9.70;;
37205;SDS011;23099;42.636;23.198;2023-04-30T04:39:49;19.77;;;8.65;;
37205;SDS011;23099;42.636;23.198;2023-04-30T04:42:16;15.95;;;8.63;;
37205;SDS011;23099;42.636;23.198;2023-04-30T04:44:44;17.98;;;9.25;;
37205;SDS011;23099;42.636;23.198;2023-04-30T04:47:11;14.75;;;7.15;;
37205;SDS011;23099;42.636;23.198;2023-04-30T04:49:37;12.75;;;6.03;;
37205;SDS011;23099;42.636;23.198;2023-04-30T04:52:06;12.98;;;6.93;;
37205;SDS011;23099;42.636;23.198;2023-04-30T04:54:33;12.40;;;6.22;;
37205;SDS011;23099;42.636;23.198;2023-04-30T04:56:59;17.35;;;8.80;;
37205;SDS011;23099;42.636;23.198;2023-04-30T04:59:27;13.80;;;7.50;;
37205;SDS011;23099;42.636;23.198;2023-04-30T05:01:53;19.90;;;9.70;;
37205;SDS011;23099;42.636;23.198;2023-04-30T05:04:20;18.10;;;8.82;;
37205;SDS011;23099;42.636;23.198;2023-04-30T05:06:47;22.35;;;9.15;;
37205;SDS011;23099;42.636;23.198;2023-04-30T05:09:15;21.42;;;9.40;;
37205;SDS011;23099;42.636;23.198;2023-04-30T05:11:42;16.83;;;8.60;;
37205;SDS011;23099;42.636;23.198;2023-04-30T05:14:10;15.35;;;7.75;;
37205;SDS011;23099;42.636;23.198;2023-04-30T05:16:37;13.23;;;5.70;;
37205;SDS011;23099;42.636;23.198;2023-04-30T05:19:04;12.35;;;5.78;;
37205;SDS011;23099;42.636;23.198;2023-04-30T05:21:31;20.08;;;8.10;;
37205;SDS011;23099;42.636;23.198;2023-04-30T05:23:57;17.27;;;6.93;;
37205;SDS011;23099;42.636;23.198;2023-04-30T05:26:26;13.52;;;5.03;;
37205;SDS011;23099;42.636;23.198;2023-04-30T05:28:52;12.57;;;5.22;;
37205;SDS011;23099;42.636;23.198;2023-04-30T05:31:19;9.27;;;3.60;;
37205;SDS011;23099;42.636;23.198;2023-04-30T05:33:46;10.68;;;4.50;;
37205;SDS011;23099;42.636;23.198;2023-04-30T05:36:13;15.35;;;5.90;;
37205;SDS011;23099;42.636;23.198;2023-04-30T05:38:39;19.52;;;8.05;;
37205;SDS011;23099;42.636;23.198;2023-04-30T05:41:09;20.70;;;9.18;;
37205;SDS011;23099;42.636;23.198;2023-04-30T05:43:38;20.77;;;8.65;;
37205;SDS011;23099;42.636;23.198;2023-04-30T05:46:04;19.20;;;9.02;;
37205;SDS011;23099;42.636;23.198;2023-04-30T05:48:31;23.23;;;8.60;;
37205;SDS011;23099;42.636;23.198;2023-04-30T05:50:58;25.85;;;10.95;;
37205;SDS011;23099;42.636;23.198;2023-04-30T05:53:24;21.17;;;8.35;;
37205;SDS011;23099;42.636;23.198;2023-04-30T05:55:51;19.80;;;8.63;;
37205;SDS011;23099;42.636;23.198;2023-04-30T05:58:18;26.40;;;9.85;;
37205;SDS011;23099;42.636;23.198;2023-04-30T06:00:48;22.05;;;8.18;;
37205;SDS011;23099;42.636;23.198;2023-04-30T06:03:16;17.15;;;7.93;;
37205;SDS011;23099;42.636;23.198;2023-04-30T06:05:43;19.05;;;7.65;;
37205;SDS011;23099;42.636;23.198;2023-04-30T06:08:09;20.02;;;7.55;;
37205;SDS011;23099;42.636;23.198;2023-04-30T06:10:36;20.65;;;8.95;;
37205;SDS011;23099;42.636;23.198;2023-04-30T06:13:04;20.30;;;7.80;;
37205;SDS011;23099;42.636;23.198;2023-04-30T06:15:31;18.85;;;7.38;;
37205;SDS011;23099;42.636;23.198;2023-04-30T06:17:59;18.17;;;7.28;;
37205;SDS011;23099;42.636;23.198;2023-04-30T06:20:26;18.67;;;7.03;;
37205;SDS011;23099;42.636;23.198;2023-04-30T06:22:52;15.85;;;5.90;;
37205;SDS011;23099;42.636;23.198;2023-04-30T06:25:19;10.90;;;4.25;;
37205;SDS011;23099;42.636;23.198;2023-04-30T06:27:46;12.48;;;4.35;;
37205;SDS011;23099;42.636;23.198;2023-04-30T06:30:13;16.48;;;4.90;;
37205;SDS011;23099;42.636;23.198;2023-04-30T06:32:39;11.27;;;4.43;;
37205;SDS011;23099;42.636;23.198;2023-04-30T06:35:08;12.30;;;4.00;;
37205;SDS011;23099;42.636;23.198;2023-04-30T06:37:35;11.95;;;3.90;;
37205;SDS011;23099;42.636;23.198;2023-04-30T06:40:01;8.57;;;2.78;;
37205;SDS011;23099;42.636;23.198;2023-04-30T06:42:29;13.47;;;3.27;;
37205;SDS011;23099;42.636;23.198;2023-04-30T06:44:58;9.07;;;3.72;;
37205;SDS011;23099;42.636;23.198;2023-04-30T06:47:26;10.27;;;3.97;;
37205;SDS011;23099;42.636;23.198;2023-04-30T06:49:52;10.48;;;2.88;;
37205;SDS011;23099;42.636;23.198;2023-04-30T06:52:20;8.13;;;2.13;;
37205;SDS011;23099;42.636;23.198;2023-04-30T06:54:47;7.05;;;2.20;;
37205;SDS011;23099;42.636;23.198;2023-04-30T06:57:14;6.15;;;2.20;;
37205;SDS011;23099;42.636;23.198;2023-04-30T06:59:40;6.63;;;2.30;;
37205;SDS011;23099;42.636;23.198;2023-04-30T07:02:07;10.48;;;2.30;;
37205;SDS011;23099;42.636;23.198;2023-04-30T07:04:34;8.13;;;2.85;;
37205;SDS011;23099;42.636;23.198;2023-04-30T07:07:00;6.63;;;2.20;;
37205;SDS011;23099;42.636;23.198;2023-04-30T07:09:28;6.47;;;2.00;;
37205;SDS011;23099;42.636;23.198;2023-04-30T07:11:56;9.15;;;2.50;;
37205;SDS011;23099;42.636;23.198;2023-04-30T07:14:23;9.70;;;1.93;;
37205;SDS011;23099;42.636;23.198;2023-04-30T07:16:50;8.93;;;2.13;;
37205;SDS011;23099;42.636;23.198;2023-04-30T07:19:16;8.73;;;2.00;;
37205;SDS011;23099;42.636;23.198;2023-04-30T07:21:43;7.97;;;2.25;;
37205;SDS011;23099;42.636;23.198;2023-04-30T07:24:10;7.43;;;2.00;;
37205;SDS011;23099;42.636;23.198;2023-04-30T07:26:38;10.05;;;2.20;;
37205;SDS011;23099;42.636;23.198;2023-04-30T07:29:06;6.82;;;2.60;;
37205;SDS011;23099;42.636;23.198;2023-04-30T07:31:33;7.45;;;2.55;;
37205;SDS011;23099;42.636;23.198;2023-04-30T07:34:00;9.63;;;3.00;;
37205;SDS011;23099;42.636;23.198;2023-04-30T07:36:26;9.00;;;3.22;;
37205;SDS011;23099;42.636;23.198;2023-04-30T07:38:53;9.40;;;2.55;;
37205;SDS011;23099;42.636;23.198;2023-04-30T07:41:20;8.10;;;2.70;;
37205;SDS011;23099;42.636;23.198;2023-04-30T07:43:48;9.60;;;2.97;;
37205;SDS011;23099;42.636;23.198;2023-04-30T07:46:14;7.30;;;2.88;;
37205;SDS011;23099;42.636;23.198;2023-04-30T07:48:41;8.23;;;2.63;;
37205;SDS011;23099;42.636;23.198;2023-04-30T07:51:08;7.32;;;2.22;;
37205;SDS011;23099;42.636;23.198;2023-04-30T07:53:35;12.57;;;3.33;;
37205;SDS011;23099;42.636;23.198;2023-04-30T07:56:01;13.93;;;3.95;;
37205;SDS011;23099;42.636;23.198;2023-04-30T07:58:28;8.95;;;2.88;;
37205;SDS011;23099;42.636;23.198;2023-04-30T08:00:58;8.13;;;3.00;;
37205;SDS011;23099;42.636;23.198;2023-04-30T08:03:24;11.70;;;3.25;;
37205;SDS011;23099;42.636;23.198;2023-04-30T08:05:51;7.95;;;3.45;;
37205;SDS011;23099;42.636;23.198;2023-04-30T08:08:18;10.75;;;4.05;;
37205;SDS011;23099;42.636;23.198;2023-04-30T08:10:45;7.28;;;3.03;;
37205;SDS011;23099;42.636;23.198;2023-04-30T08:13:11;11.38;;;3.17;;
37205;SDS011;23099;42.636;23.198;2023-04-30T08:15:38;11.18;;;3.53;;
37205;SDS011;23099;42.636;23.198;2023-04-30T08:18:06;19.70;;;5.07;;
37205;SDS011;23099;42.636;23.198;2023-04-30T08:20:33;22.52;;;6.60;;
37205;SDS011;23099;42.636;23.198;2023-04-30T08:23:00;21.92;;;5.75;;
37205;SDS011;23099;42.636;23.198;2023-04-30T08:25:27;18.83;;;5.57;;
37205;SDS011;23099;42.636;23.198;2023-04-30T08:30:22;23.63;;;5.22;;
37205;SDS011;23099;42.636;23.198;2023-04-30T08:32:49;20.27;;;5.28;;
37205;SDS011;23099;42.636;23.198;2023-04-30T08:35:17;21.25;;;4.93;;
37205;SDS011;23099;42.636;23.198;2023-04-30T08:37:45;12.93;;;3.80;;
37205;SDS011;23099;42.636;23.198;2023-04-30T08:40:11;12.35;;;4.05;;
37205;SDS011;23099;42.636;23.198;2023-04-30T08:42:40;14.15;;;3.83;;
37205;SDS011;23099;42.636;23.198;2023-04-30T08:45:11;12.50;;;3.45;;
37205;SDS011;23099;42.636;23.198;2023-04-30T08:47:38;9.27;;;3.20;;
37205;SDS011;23099;42.636;23.198;2023-04-30T08:50:06;10.02;;;3.72;;
37205;SDS011;23099;42.636;23.198;2023-04-30T08:52:34;10.17;;;3.50;;
37205;SDS011;23099;42.636;23.198;2023-04-30T08:55:06;13.60;;;4.10;;
37205;SDS011;23099;42.636;23.198;2023-04-30T08:57:34;10.10;;;4.10;;
37205;SDS011;23099;42.636;23.198;2023-04-30T09:00:02;13.18;;;4.53;;
37205;SDS011;23099;42.636;23.198;2023-04-30T09:02:30;11.07;;;3.80;;
37205;SDS011;23099;42.636;23.198;2023-04-30T09:04:57;9.48;;;3.42;;
37205;SDS011;23099;42.636;23.198;2023-04-30T09:07:24;12.63;;;3.47;;
37205;SDS011;23099;42.636;23.198;2023-04-30T09:09:54;12.57;;;3.90;;
37205;SDS011;23099;42.636;23.198;2023-04-30T09:12:22;11.30;;;3.50;;
37205;SDS011;23099;42.636;23.198;2023-04-30T09:14:58;12.43;;;3.65;;
37205;SDS011;23099;42.636;23.198;2023-04-30T09:17:26;10.88;;;2.95;;
37205;SDS011;23099;42.636;23.198;2023-04-30T09:19:53;8.02;;;2.80;;
37205;SDS011;23099;42.636;23.198;2023-04-30T09:22:21;8.77;;;3.38;;
37205;SDS011;23099;42.636;23.198;2023-04-30T09:24:49;7.35;;;3.60;;
37205;SDS011;23099;42.636;23.198;2023-04-30T09:29:46;7.90;;;3.15;;
37205;SDS011;23099;42.636;23.198;2023-04-30T09:32:13;6.50;;;2.88;;
37205;SDS011;23099;42.636;23.198;2023-04-30T09:34:40;6.57;;;3.00;;
37205;SDS011;23099;42.636;23.198;2023-04-30T09:37:07;10.02;;;4.47;;
37205;SDS011;23099;42.636;23.198;2023-04-30T09:39:44;6.10;;;2.38;;
37205;SDS011;23099;42.636;23.198;2023-04-30T09:44:42;7.90;;;3.17;;
37205;SDS011;23099;42.636;23.198;2023-04-30T09:47:12;9.68;;;2.72;;
37205;SDS011;23099;42.636;23.198;2023-04-30T09:49:41;7.88;;;3.10;;
37205;SDS011;23099;42.636;23.198;2023-04-30T09:52:09;9.85;;;3.28;;
37205;SDS011;23099;42.636;23.198;2023-04-30T09:54:36;6.38;;;2.80;;
37205;SDS011;23099;42.636;23.198;2023-04-30T09:57:03;7.17;;;2.50;;
37205;SDS011;23099;42.636;23.198;2023-04-30T09:59:34;5.05;;;2.20;;
37205;SDS011;23099;42.636;23.198;2023-04-30T10:02:05;5.13;;;2.05;;
37205;SDS011;23099;42.636;23.198;2023-04-30T10:04:32;8.57;;;2.50;;
37205;SDS011;23099;42.636;23.198;2023-04-30T10:07:01;7.78;;;2.40;;
37205;SDS011;23099;42.636;23.198;2023-04-30T10:09:34;7.53;;;2.45;;
37205;SDS011;23099;42.636;23.198;2023-04-30T10:12:05;10.07;;;3.28;;
37205;SDS011;23099;42.636;23.198;2023-04-30T10:14:38;11.15;;;3.40;;
37205;SDS011;23099;42.636;23.198;2023-04-30T10:17:10;12.82;;;4.10;;
37205;SDS011;23099;42.636;23.198;2023-04-30T10:19:40;10.40;;;4.75;;
37205;SDS011;23099;42.636;23.198;2023-04-30T10:22:11;12.82;;;5.45;;
37205;SDS011;23099;42.636;23.198;2023-04-30T10:24:38;13.63;;;6.13;;
37205;SDS011;23099;42.636;23.198;2023-04-30T10:29:33;20.65;;;9.32;;
37205;SDS011;23099;42.636;23.198;2023-04-30T10:32:00;15.63;;;8.50;;
37205;SDS011;23099;42.636;23.198;2023-04-30T10:34:33;9.35;;;5.20;;
37205;SDS011;23099;42.636;23.198;2023-04-30T10:39:40;9.05;;;4.00;;
37205;SDS011;23099;42.636;23.198;2023-04-30T10:42:08;8.98;;;5.30;;
37205;SDS011;23099;42.636;23.198;2023-04-30T10:47:03;6.88;;;3.00;;
37205;SDS011;23099;42.636;23.198;2023-04-30T10:49:31;7.90;;;4.00;;
37205;SDS011;23099;42.636;23.198;2023-04-30T10:54:26;6.63;;;3.03;;
37205;SDS011;23099;42.636;23.198;2023-04-30T10:56:53;7.65;;;2.80;;
37205;SDS011;23099;42.636;23.198;2023-04-30T10:59:35;5.65;;;2.70;;
37205;SDS011;23099;42.636;23.198;2023-04-30T11:02:01;7.30;;;3.78;;
37205;SDS011;23099;42.636;23.198;2023-04-30T11:04:28;9.07;;;4.32;;
37205;SDS011;23099;42.636;23.198;2023-04-30T11:07:01;6.55;;;3.90;;
37205;SDS011;23099;42.636;23.198;2023-04-30T11:09:36;8.67;;;3.43;;
37205;SDS011;23099;42.636;23.198;2023-04-30T11:12:09;6.35;;;3.55;;
37205;SDS011;23099;42.636;23.198;2023-04-30T11:14:38;8.02;;;3.58;;
37205;SDS011;23099;42.636;23.198;2023-04-30T11:17:08;6.32;;;2.72;;
37205;SDS011;23099;42.636;23.198;2023-04-30T11:19:40;5.18;;;2.53;;
37205;SDS011;23099;42.636;23.198;2023-04-30T11:22:15;6.45;;;2.80;;
37205;SDS011;23099;42.636;23.198;2023-04-30T11:24:50;6.93;;;2.40;;
37205;SDS011;23099;42.636;23.198;2023-04-30T11:27:18;5.88;;;2.55;;
37205;SDS011;23099;42.636;23.198;2023-04-30T11:29:47;6.20;;;2.80;;
37205;SDS011;23099;42.636;23.198;2023-04-30T11:32:15;7.22;;;2.50;;
37205;SDS011;23099;42.636;23.198;2023-04-30T11:34:42;5.90;;;2.35;;
37205;SDS011;23099;42.636;23.198;2023-04-30T11:37:11;6.88;;;2.65;;
37205;SDS011;23099;42.636;23.198;2023-04-30T11:39:40;4.93;;;2.13;;
37205;SDS011;23099;42.636;23.198;2023-04-30T11:42:07;7.28;;;2.45;;
37205;SDS011;23099;42.636;23.198;2023-04-30T11:44:34;5.90;;;2.78;;
37205;SDS011;23099;42.636;23.198;2023-04-30T11:47:02;5.53;;;2.42;;
37205;SDS011;23099;42.636;23.198;2023-04-30T11:49:30;12.45;;;3.95;;
37205;SDS011;23099;42.636;23.198;2023-04-30T11:51:57;6.90;;;2.40;;
37205;SDS011;23099;42.636;23.198;2023-04-30T11:54:24;6.95;;;2.63;;
37205;SDS011;23099;42.636;23.198;2023-04-30T11:56:52;4.43;;;2.15;;
37205;SDS011;23099;42.636;23.198;2023-04-30T11:59:25;6.15;;;2.65;;
37205;SDS011;23099;42.636;23.198;2023-04-30T12:01:51;4.78;;;2.33;;
37205;SDS011;23099;42.636;23.198;2023-04-30T12:04:19;6.32;;;2.00;;
37205;SDS011;23099;42.636;23.198;2023-04-30T12:06:46;7.93;;;2.50;;
37205;SDS011;23099;42.636;23.198;2023-04-30T12:09:12;6.65;;;2.38;;
37205;SDS011;23099;42.636;23.198;2023-04-30T12:11:39;5.28;;;1.85;;
37205;SDS011;23099;42.636;23.198;2023-04-30T12:14:08;5.97;;;2.00;;
37205;SDS011;23099;42.636;23.198;2023-04-30T12:16:39;6.70;;;2.05;;
37205;SDS011;23099;42.636;23.198;2023-04-30T12:19:08;6.82;;;1.90;;
37205;SDS011;23099;42.636;23.198;2023-04-30T12:21:35;3.88;;;1.10;;
37205;SDS011;23099;42.636;23.198;2023-04-30T12:24:03;3.22;;;1.10;;
37205;SDS011;23099;42.636;23.198;2023-04-30T12:26:35;5.70;;;1.40;;
37205;SDS011;23099;42.636;23.198;2023-04-30T12:29:04;6.40;;;1.30;;
37205;SDS011;23099;42.636;23.198;2023-04-30T12:31:32;5.85;;;1.30;;
37205;SDS011;23099;42.636;23.198;2023-04-30T12:36:29;5.32;;;1.35;;
37205;SDS011;23099;42.636;23.198;2023-04-30T12:39:00;7.07;;;3.08;;
37205;SDS011;23099;42.636;23.198;2023-04-30T12:41:28;10.68;;;3.67;;
37205;SDS011;23099;42.636;23.198;2023-04-30T12:46:44;8.60;;;3.70;;
37205;SDS011;23099;42.636;23.198;2023-04-30T12:49:12;6.82;;;3.30;;
37205;SDS011;23099;42.636;23.198;2023-04-30T12:51:48;7.30;;;3.20;;
37205;SDS011;23099;42.636;23.198;2023-04-30T12:54:23;5.97;;;2.25;;
37205;SDS011;23099;42.636;23.198;2023-04-30T12:56:57;8.18;;;2.30;;
37205;SDS011;23099;42.636;23.198;2023-04-30T12:59:25;7.25;;;2.95;;
37205;SDS011;23099;42.636;23.198;2023-04-30T13:01:53;8.93;;;3.60;;
37205;SDS011;23099;42.636;23.198;2023-04-30T13:06:47;9.95;;;3.80;;
37205;SDS011;23099;42.636;23.198;2023-04-30T13:09:14;9.63;;;3.67;;
37205;SDS011;23099;42.636;23.198;2023-04-30T13:11:40;9.98;;;4.53;;
37205;SDS011;23099;42.636;23.198;2023-04-30T13:14:07;9.70;;;3.67;;
37205;SDS011;23099;42.636;23.198;2023-04-30T13:16:35;5.47;;;2.20;;
37205;SDS011;23099;42.636;23.198;2023-04-30T13:19:03;6.80;;;2.42;;
37205;SDS011;23099;42.636;23.198;2023-04-30T13:23:57;6.63;;;2.70;;
37205;SDS011;23099;42.636;23.198;2023-04-30T13:26:23;6.40;;;1.95;;
37205;SDS011;23099;42.636;23.198;2023-04-30T13:28:50;5.30;;;1.70;;
37205;SDS011;23099;42.636;23.198;2023-04-30T13:31:17;3.33;;;1.30;;
37205;SDS011;23099;42.636;23.198;2023-04-30T13:33:44;3.92;;;1.50;;
37205;SDS011;23099;42.636;23.198;2023-04-30T13:36:12;3.75;;;1.20;;
37205;SDS011;23099;42.636;23.198;2023-04-30T13:41:06;8.52;;;1.58;;
37205;SDS011;23099;42.636;23.198;2023-04-30T13:43:32;5.03;;;1.65;;
37205;SDS011;23099;42.636;23.198;2023-04-30T13:45:59;3.78;;;1.33;;
37205;SDS011;23099;42.636;23.198;2023-04-30T13:48:26;3.47;;;1.40;;
37205;SDS011;23099;42.636;23.198;2023-04-30T13:50:53;6.47;;;2.78;;
37205;SDS011;23099;42.636;23.198;2023-04-30T13:53:21;9.55;;;5.63;;
37205;SDS011;23099;42.636;23.198;2023-04-30T13:55:48;7.15;;;3.20;;
37205;SDS011;23099;42.636;23.198;2023-04-30T13:58:14;4.50;;;1.40;;
37205;SDS011;23099;42.636;23.198;2023-04-30T14:00:41;3.33;;;1.00;;
37205;SDS011;23099;42.636;23.198;2023-04-30T14:03:08;2.72;;;1.00;;
37205;SDS011;23099;42.636;23.198;2023-04-30T14:05:35;5.10;;;1.50;;
37205;SDS011;23099;42.636;23.198;2023-04-30T14:08:02;4.10;;;1.30;;
37205;SDS011;23099;42.636;23.198;2023-04-30T14:10:31;3.53;;;1.20;;
37205;SDS011;23099;42.636;23.198;2023-04-30T14:12:57;2.97;;;1.00;;
37205;SDS011;23099;42.636;23.198;2023-04-30T14:15:24;3.58;;;0.90;;
37205;SDS011;23099;42.636;23.198;2023-04-30T14:17:51;3.63;;;0.93;;
37205;SDS011;23099;42.636;23.198;2023-04-30T14:20:18;3.83;;;1.38;;
37205;SDS011;23099;42.636;23.198;2023-04-30T14:22:45;2.55;;;0.85;;
37205;SDS011;23099;42.636;23.198;2023-04-30T14:25:11;4.88;;;1.10;;
37205;SDS011;23099;42.636;23.198;2023-04-30T14:27:40;3.35;;;1.13;;
37205;SDS011;23099;42.636;23.198;2023-04-30T14:30:07;4.35;;;0.90;;
37205;SDS011;23099;42.636;23.198;2023-04-30T14:32:34;4.22;;;0.90;;
37205;SDS011;23099;42.636;23.198;2023-04-30T14:35:01;6.80;;;1.65;;
37205;SDS011;23099;42.636;23.198;2023-04-30T14:37:27;3.28;;;1.10;;
37205;SDS011;23099;42.636;23.198;2023-04-30T14:39:54;2.80;;;0.90;;
37205;SDS011;23099;42.636;23.198;2023-04-30T14:42:21;3.58;;;1.05;;
37205;SDS011;23099;42.636;23.198;2023-04-30T14:44:49;4.28;;;1.27;;
37205;SDS011;23099;42.636;23.198;2023-04-30T14:47:17;4.03;;;1.00;;
37205;SDS011;23099;42.636;23.198;2023-04-30T14:52:12;3.55;;;1.00;;
37205;SDS011;23099;42.636;23.198;2023-04-30T14:54:38;6.03;;;1.20;;
37205;SDS011;23099;42.636;23.198;2023-04-30T14:57:05;4.22;;;0.90;;
37205;SDS011;23099;42.636;23.198;2023-04-30T14:59:32;4.20;;;1.00;;
37205;SDS011;23099;42.636;23.198;2023-04-30T15:02:01;3.38;;;0.80;;
37205;SDS011;23099;42.636;23.198;2023-04-30T15:04:28;2.13;;;0.77;;
37205;SDS011;23099;42.636;23.198;2023-04-30T15:06:54;4.00;;;0.80;;